createdAt,value
2018-03-28T00:00:54.961Z,8.10
2018-03-28T00:03:22.481Z,8.10
2018-03-28T00:05:50.750Z,8.10
2018-03-28T00:08:19.063Z,8.10
2018-03-28T00:10:46.585Z,8.10
2018-03-28T00:13:14.110Z,8.10
2018-03-28T00:15:41.631Z,8.10
2018-03-28T00:18:09.166Z,8.20
2018-03-28T00:20:36.655Z,8.20
2018-03-28T00:23:04.152Z,8.20
2018-03-28T00:25:31.663Z,8.10
2018-03-28T00:27:59.183Z,8.20
2018-03-28T00:30:26.673Z,8.10
2018-03-28T00:32:54.203Z,8.10
2018-03-28T00:35:21.703Z,8.10
2018-03-28T00:37:49.221Z,8.10
2018-03-28T00:40:16.721Z,8.20
2018-03-28T00:42:44.243Z,8.20
2018-03-28T00:45:11.740Z,8.20
2018-03-28T00:47:39.262Z,8.20
2018-03-28T00:50:06.756Z,8.20
2018-03-28T00:52:34.284Z,8.20
2018-03-28T00:55:02.542Z,8.20
2018-03-28T00:57:30.061Z,8.20
2018-03-28T00:59:57.575Z,8.20
2018-03-28T01:02:25.897Z,8.20
2018-03-28T01:04:53.412Z,8.10
2018-03-28T01:07:20.928Z,8.20
2018-03-28T01:09:48.486Z,8.10
2018-03-28T01:12:15.988Z,8.20
2018-03-28T01:14:43.476Z,8.20
2018-03-28T01:17:11.059Z,8.20
2018-03-28T01:19:38.505Z,8.30
2018-03-28T01:22:06.009Z,8.20
2018-03-28T01:24:33.497Z,8.20
2018-03-28T01:27:01.018Z,8.20
2018-03-28T01:29:28.526Z,8.20
2018-03-28T01:31:56.070Z,8.20
2018-03-28T01:34:24.344Z,8.20
2018-03-28T01:36:51.860Z,8.20
2018-03-28T01:39:19.374Z,8.20
2018-03-28T01:41:46.904Z,8.20
2018-03-28T01:44:15.214Z,8.30
2018-03-28T01:46:42.734Z,8.30
2018-03-28T01:49:10.223Z,8.30
2018-03-28T01:51:37.754Z,8.30
2018-03-28T01:54:05.255Z,8.30
2018-03-28T01:56:32.754Z,8.20
2018-03-28T01:59:00.291Z,8.20
2018-03-28T02:01:27.783Z,8.30
2018-03-28T02:03:55.298Z,8.40
2018-03-28T02:06:22.824Z,8.40
2018-03-28T02:08:50.347Z,8.30
2018-03-28T02:11:17.867Z,8.30
2018-03-28T02:13:45.369Z,8.40
2018-03-28T02:16:12.909Z,8.30
2018-03-28T02:18:40.422Z,8.30
2018-03-28T02:21:07.922Z,8.30
2018-03-28T02:23:35.431Z,8.30
2018-03-28T02:26:03.690Z,8.30
2018-03-28T02:28:31.983Z,8.30
2018-03-28T02:31:00.242Z,8.40
2018-03-28T02:33:28.548Z,8.30
2018-03-28T02:35:56.080Z,8.30
2018-03-28T02:38:23.584Z,8.40
2018-03-28T02:40:51.109Z,8.30
2018-03-28T02:43:19.383Z,8.40
2018-03-28T02:45:47.670Z,8.40
2018-03-28T02:48:15.207Z,8.40
2018-03-28T02:50:43.477Z,8.40
2018-03-28T02:53:10.993Z,8.40
2018-03-28T02:55:38.521Z,8.40
2018-03-28T02:58:06.030Z,8.40
2018-03-28T03:00:33.547Z,8.40
2018-03-28T03:03:01.067Z,8.40
2018-03-28T03:05:28.592Z,8.40
2018-03-28T03:07:56.101Z,8.40
2018-03-28T03:10:24.401Z,8.50
2018-03-28T03:12:51.914Z,8.40
2018-03-28T03:15:19.418Z,8.50
2018-03-28T03:17:46.945Z,8.50
2018-03-28T03:20:15.198Z,8.60
2018-03-28T03:22:42.718Z,8.50
2018-03-28T03:25:10.247Z,8.60
2018-03-28T03:27:38.539Z,8.60
2018-03-28T03:30:06.063Z,8.60
2018-03-28T03:32:33.577Z,8.60
2018-03-28T03:35:01.087Z,8.70
2018-03-28T03:37:28.614Z,8.80
2018-03-28T03:39:56.142Z,8.80
2018-03-28T03:42:23.655Z,8.80
2018-03-28T03:44:51.141Z,8.80
2018-03-28T03:47:18.658Z,8.80
2018-03-28T03:49:46.163Z,8.90
2018-03-28T03:52:13.689Z,8.90
2018-03-28T03:54:41.227Z,8.90
2018-03-28T03:57:08.729Z,8.90
2018-03-28T03:59:37.020Z,8.90
2018-03-28T04:02:04.530Z,8.80
2018-03-28T04:04:32.061Z,8.90
2018-03-28T04:06:59.578Z,8.90
2018-03-28T04:09:27.863Z,8.90
2018-03-28T04:11:55.377Z,8.90
2018-03-28T04:14:22.893Z,9.00
2018-03-28T04:16:50.387Z,8.90
2018-03-28T04:19:17.910Z,9.00
2018-03-28T04:21:45.427Z,9.00
2018-03-28T04:24:12.974Z,9.00
2018-03-28T04:26:40.501Z,8.90
2018-03-28T04:29:08.037Z,8.90
2018-03-28T04:31:35.550Z,8.90
2018-03-28T04:34:03.058Z,8.90
2018-03-28T04:36:30.586Z,8.90
2018-03-28T04:38:58.913Z,9.00
2018-03-28T04:41:26.436Z,9.00
2018-03-28T04:43:53.954Z,9.00
2018-03-28T04:46:21.450Z,9.00
2018-03-28T04:48:49.003Z,9.00
2018-03-28T04:51:17.290Z,9.00
2018-03-28T04:53:45.568Z,9.00
2018-03-28T04:56:13.882Z,9.00
2018-03-28T04:58:41.406Z,9.00
2018-03-28T05:01:08.976Z,9.00
2018-03-28T05:03:36.490Z,8.90
2018-03-28T05:06:03.994Z,8.90
2018-03-28T05:08:31.519Z,8.90
2018-03-28T05:10:59.802Z,8.90
2018-03-28T05:13:28.096Z,8.90
2018-03-28T05:15:55.677Z,8.90
2018-03-28T05:18:23.177Z,9.00
2018-03-28T05:20:50.810Z,9.00
2018-03-28T05:23:18.375Z,8.90
2018-03-28T05:25:45.892Z,8.90
2018-03-28T05:28:13.421Z,8.90
2018-03-28T05:30:40.920Z,8.90
2018-03-28T05:33:08.451Z,8.90
2018-03-28T05:35:35.960Z,8.90
2018-03-28T05:38:03.488Z,9.00
2018-03-28T05:40:30.992Z,9.00
2018-03-28T05:42:58.484Z,8.90
2018-03-28T05:45:26.035Z,8.90
2018-03-28T05:47:54.328Z,9.00
2018-03-28T05:50:22.676Z,9.00
2018-03-28T05:52:50.133Z,9.00
2018-03-28T05:55:17.665Z,9.00
2018-03-28T05:57:45.171Z,8.90
2018-03-28T06:00:13.496Z,8.90
2018-03-28T06:02:41.013Z,8.90
2018-03-28T06:05:08.524Z,9.00
2018-03-28T06:07:36.052Z,9.00
2018-03-28T06:10:03.581Z,9.00
2018-03-28T06:12:31.889Z,9.10
2018-03-28T06:14:59.453Z,9.10
2018-03-28T06:17:26.931Z,9.10
2018-03-28T06:19:54.461Z,9.00
2018-03-28T06:22:21.990Z,9.10
2018-03-28T06:24:50.284Z,9.20
2018-03-28T06:27:17.839Z,9.20
2018-03-28T06:29:46.142Z,9.40
2018-03-28T06:32:13.680Z,9.30
2018-03-28T06:34:41.962Z,9.60
2018-03-28T06:37:09.486Z,9.50
2018-03-28T06:39:37.034Z,9.60
2018-03-28T06:42:04.506Z,9.70
2018-03-28T06:44:32.026Z,9.70
2018-03-28T06:46:59.543Z,9.90
2018-03-28T06:49:27.839Z,9.80
2018-03-28T06:51:55.358Z,9.80
2018-03-28T06:54:22.871Z,9.90
2018-03-28T06:56:50.412Z,9.80
2018-03-28T06:59:17.953Z,9.80
2018-03-28T07:01:46.226Z,9.70
2018-03-28T07:04:14.501Z,9.80
2018-03-28T07:06:42.886Z,9.80
2018-03-28T07:09:11.150Z,9.80
2018-03-28T07:11:39.413Z,9.80
2018-03-28T07:14:06.927Z,9.80
2018-03-28T07:16:34.418Z,9.80
2018-03-28T07:19:01.921Z,9.90
2018-03-28T07:21:29.461Z,10.00
2018-03-28T07:23:56.989Z,9.90
2018-03-28T07:26:24.533Z,9.90
2018-03-28T07:28:52.066Z,9.90
2018-03-28T07:31:19.622Z,9.90
2018-03-28T07:33:47.119Z,10.00
2018-03-28T07:36:14.628Z,9.90
2018-03-28T07:38:42.905Z,10.10
2018-03-28T07:41:10.415Z,10.00
2018-03-28T07:43:37.935Z,10.30
2018-03-28T07:46:05.480Z,10.40
2018-03-28T07:48:32.973Z,10.60
2018-03-28T07:51:00.510Z,10.40
2018-03-28T07:53:28.019Z,10.40
2018-03-28T07:55:55.572Z,10.60
2018-03-28T07:58:23.072Z,10.60
2018-03-28T08:00:50.602Z,10.60
2018-03-28T08:03:18.130Z,10.90
2018-03-28T08:05:45.612Z,11.00
2018-03-28T08:08:13.159Z,11.20
2018-03-28T08:10:40.687Z,11.20
2018-03-28T08:13:08.208Z,11.10
2018-03-28T08:15:35.747Z,11.20
2018-03-28T08:18:03.247Z,11.00
2018-03-28T08:20:30.747Z,11.00
2018-03-28T08:22:58.359Z,10.90
2018-03-28T08:25:26.623Z,11.20
2018-03-28T08:27:54.961Z,11.30
2018-03-28T08:30:22.461Z,11.30
2018-03-28T08:32:50.812Z,11.30
2018-03-28T08:35:18.292Z,11.30
2018-03-28T08:37:46.571Z,11.40
2018-03-28T08:40:14.109Z,11.40
2018-03-28T08:42:41.656Z,11.50
2018-03-28T08:45:09.297Z,11.50
2018-03-28T08:47:36.840Z,11.80
2018-03-28T08:50:04.349Z,11.60
2018-03-28T08:52:31.871Z,11.50
2018-03-28T08:55:00.156Z,11.50
2018-03-28T08:57:27.679Z,11.50
2018-03-28T08:59:55.192Z,11.80
2018-03-28T09:02:22.770Z,11.90
2018-03-28T09:04:50.281Z,11.80
2018-03-28T09:07:17.812Z,11.60
2018-03-28T09:09:45.361Z,11.70
2018-03-28T09:12:13.620Z,12.10
2018-03-28T09:14:41.146Z,12.00
2018-03-28T09:17:08.685Z,12.10
2018-03-28T09:19:36.225Z,12.20
2018-03-28T09:22:03.740Z,12.10
2018-03-28T09:24:31.241Z,12.40
2018-03-28T09:26:58.832Z,12.30
2018-03-28T09:29:26.323Z,12.20
2018-03-28T09:31:53.845Z,12.50
2018-03-28T09:34:21.363Z,12.50
2018-03-28T09:36:49.627Z,12.80
2018-03-28T09:39:17.133Z,12.80
2018-03-28T09:41:44.679Z,12.70
2018-03-28T09:44:12.181Z,12.70
2018-03-28T09:46:39.699Z,12.90
2018-03-28T09:49:07.202Z,12.60
2018-03-28T09:51:34.710Z,12.60
2018-03-28T09:54:02.220Z,12.80
2018-03-28T09:56:29.776Z,13.00
2018-03-28T09:58:57.318Z,12.80
2018-03-28T10:01:29.803Z,12.90
2018-03-28T10:04:02.912Z,13.10
2018-03-28T10:06:30.456Z,13.00
2018-03-28T10:08:57.947Z,12.60
2018-03-28T10:11:26.221Z,12.60
2018-03-28T10:13:54.515Z,12.50
2018-03-28T10:16:22.058Z,12.50
2018-03-28T10:18:50.319Z,13.10
2018-03-28T10:21:17.857Z,13.10
2018-03-28T10:23:45.359Z,12.90
2018-03-28T10:26:13.669Z,13.10
2018-03-28T10:28:41.200Z,13.10
2018-03-28T10:31:08.717Z,13.10
2018-03-28T10:33:36.237Z,13.20
2018-03-28T10:36:03.731Z,13.50
2018-03-28T10:38:31.257Z,13.70
2018-03-28T10:40:59.021Z,13.30
2018-03-28T10:43:26.544Z,13.40
2018-03-28T10:46:01.447Z,14.00
2018-03-28T11:01:56.708Z,14.40
2018-03-28T11:04:24.967Z,14.20
2018-03-28T11:06:52.527Z,14.20
2018-03-28T11:09:20.077Z,14.20
2018-03-28T11:11:47.628Z,14.10
2018-03-28T11:14:15.178Z,13.90
2018-03-28T11:16:42.730Z,13.60
2018-03-28T11:19:10.262Z,13.40
2018-03-28T11:21:37.756Z,13.60
2018-03-28T11:24:06.055Z,12.80
2018-03-28T11:26:33.552Z,12.80
2018-03-28T11:29:01.102Z,12.90
2018-03-28T11:31:28.634Z,13.00
2018-03-28T11:33:56.159Z,12.90
2018-03-28T11:36:23.669Z,12.80
2018-03-28T11:38:51.207Z,12.40
2018-03-28T11:41:18.727Z,12.30
2018-03-28T11:43:46.257Z,12.30
2018-03-28T11:46:13.789Z,12.10
2018-03-28T11:48:41.298Z,11.90
2018-03-28T11:51:08.815Z,11.80
2018-03-28T11:53:36.329Z,11.90
2018-03-28T11:56:03.846Z,11.80
2018-03-28T11:58:31.359Z,12.00
2018-03-28T12:00:59.648Z,11.80
2018-03-28T12:03:27.237Z,11.80
2018-03-28T12:05:54.768Z,11.80
2018-03-28T12:08:22.296Z,11.80
2018-03-28T12:10:49.833Z,11.80
2018-03-28T12:13:17.350Z,11.70
2018-03-28T12:15:44.920Z,11.80
2018-03-28T12:18:12.428Z,12.00
2018-03-28T12:20:39.968Z,12.20
2018-03-28T12:23:07.531Z,12.30
2018-03-28T12:25:35.066Z,12.20
2018-03-28T12:28:02.598Z,12.20
2018-03-28T12:30:30.149Z,12.20
2018-03-28T12:32:57.655Z,12.30
2018-03-28T12:35:25.194Z,12.30
2018-03-28T12:37:52.723Z,12.40
2018-03-28T12:40:21.009Z,12.50
2018-03-28T12:42:48.771Z,12.50
2018-03-28T12:45:16.323Z,12.40
2018-03-28T12:47:44.610Z,12.40
2018-03-28T12:50:12.161Z,12.30
2018-03-28T12:52:40.558Z,12.60
2018-03-28T12:55:08.081Z,12.60
2018-03-28T12:57:35.606Z,12.60
2018-03-28T13:00:03.108Z,12.60
2018-03-28T13:02:31.433Z,12.80
2018-03-28T13:04:59.708Z,12.60
2018-03-28T13:07:27.231Z,12.60
2018-03-28T13:09:55.527Z,12.50
2018-03-28T13:12:23.024Z,12.50
2018-03-28T13:14:50.643Z,12.30
2018-03-28T13:17:18.173Z,12.40
2018-03-28T13:19:45.686Z,12.60
2018-03-28T13:22:13.235Z,12.60
2018-03-28T13:24:40.774Z,12.60
2018-03-28T13:27:08.300Z,12.40
2018-03-28T13:29:35.835Z,12.50
2018-03-28T13:32:03.350Z,12.40
2018-03-28T13:34:30.929Z,12.50
2018-03-28T13:36:58.427Z,12.50
2018-03-28T13:39:25.960Z,12.80
2018-03-28T13:41:53.466Z,12.60
2018-03-28T13:44:20.995Z,12.60
2018-03-28T13:46:48.504Z,12.80
2018-03-28T13:49:16.011Z,12.60
2018-03-28T13:51:43.517Z,12.60
2018-03-28T13:54:11.021Z,12.50
2018-03-28T13:56:38.521Z,12.50
2018-03-28T13:59:06.044Z,12.50
2018-03-28T14:01:33.566Z,12.50
2018-03-28T14:04:01.076Z,12.60
2018-03-28T14:06:28.622Z,12.50
2018-03-28T14:08:56.133Z,12.40
2018-03-28T14:11:23.639Z,12.20
2018-03-28T14:13:51.191Z,12.20
2018-03-28T14:16:18.850Z,12.40
2018-03-28T14:18:46.378Z,12.30
2018-03-28T14:21:13.936Z,12.30
2018-03-28T14:23:41.460Z,12.30
2018-03-28T14:26:10.347Z,12.00
2018-03-28T14:28:38.633Z,12.20
2018-03-28T14:31:06.932Z,12.20
2018-03-28T14:33:34.461Z,12.10
2018-03-28T14:36:02.756Z,12.10
2018-03-28T14:38:30.584Z,12.10
2018-03-28T14:40:58.108Z,12.20
2018-03-28T14:43:25.645Z,12.20
2018-03-28T14:45:53.160Z,12.20
2018-03-28T14:48:20.696Z,12.00
2018-03-28T14:50:48.245Z,12.00
2018-03-28T14:53:15.755Z,12.00
2018-03-28T14:55:44.056Z,12.00
2018-03-28T14:58:11.561Z,12.00
2018-03-28T15:00:39.103Z,11.80
2018-03-28T15:03:06.619Z,11.60
2018-03-28T15:05:34.892Z,11.60
2018-03-28T15:08:02.438Z,11.60
2018-03-28T15:10:30.721Z,11.60
2018-03-28T15:12:59.008Z,11.60
2018-03-28T15:15:26.530Z,11.50
2018-03-28T15:17:54.050Z,11.50
2018-03-28T15:20:21.881Z,11.60
2018-03-28T15:22:50.191Z,11.60
2018-03-28T15:25:18.471Z,11.70
2018-03-28T15:27:45.972Z,11.60
2018-03-28T15:30:13.493Z,11.60
2018-03-28T15:32:41.095Z,11.60
2018-03-28T15:35:08.571Z,11.60
2018-03-28T15:37:36.123Z,11.60
2018-03-28T15:40:04.440Z,11.60
2018-03-28T15:42:31.947Z,11.60
2018-03-28T15:44:59.534Z,11.60
2018-03-28T15:47:27.022Z,11.60
2018-03-28T15:49:54.555Z,11.50
2018-03-28T15:52:22.092Z,11.50
2018-03-28T15:54:49.645Z,11.50
2018-03-28T15:57:17.180Z,11.50
2018-03-28T15:59:44.734Z,11.50
2018-03-28T16:02:12.282Z,11.50
2018-03-28T16:04:39.822Z,11.60
2018-03-28T16:07:07.335Z,11.60
2018-03-28T16:09:34.852Z,11.60
2018-03-28T16:12:02.381Z,11.60
2018-03-28T16:14:29.910Z,11.70
2018-03-28T16:16:57.425Z,11.60
2018-03-28T16:19:24.943Z,11.60
2018-03-28T16:21:52.484Z,11.70
2018-03-28T16:24:19.993Z,11.60
2018-03-28T16:26:47.522Z,11.70
2018-03-28T16:29:15.791Z,11.40
2018-03-28T16:31:44.104Z,11.30
2018-03-28T16:34:11.625Z,11.30
2018-03-28T16:36:39.909Z,11.10
2018-03-28T16:39:08.197Z,11.20
2018-03-28T16:41:36.498Z,11.10
2018-03-28T16:44:13.787Z,11.10
2018-03-28T16:46:41.311Z,11.20
2018-03-28T16:49:09.610Z,11.10
2018-03-28T16:51:37.109Z,11.10
2018-03-28T16:54:04.655Z,11.10
2018-03-28T16:56:32.160Z,11.00
2018-03-28T16:59:00.468Z,11.00
2018-03-28T17:01:27.984Z,11.00
2018-03-28T17:03:56.295Z,11.10
2018-03-28T17:06:23.878Z,11.10
2018-03-28T17:08:51.425Z,11.10
2018-03-28T17:11:18.955Z,11.20
2018-03-28T17:13:46.448Z,11.20
2018-03-28T17:16:13.979Z,11.20
2018-03-28T17:18:42.269Z,11.30
2018-03-28T17:21:09.793Z,11.20
2018-03-28T17:23:37.335Z,11.30
2018-03-28T17:26:04.857Z,11.20
2018-03-28T17:28:32.421Z,11.20
2018-03-28T17:30:59.940Z,11.20
2018-03-28T17:33:28.270Z,11.20
2018-03-28T17:35:55.794Z,11.20
2018-03-28T17:38:23.299Z,11.20
2018-03-28T17:40:50.872Z,11.20
2018-03-28T17:43:18.395Z,11.20
2018-03-28T17:45:45.975Z,11.20
2018-03-28T17:48:13.510Z,11.10
2018-03-28T17:50:41.131Z,11.10
2018-03-28T17:53:08.732Z,11.10
2018-03-28T17:55:36.289Z,11.10
2018-03-28T17:58:03.788Z,11.00
2018-03-28T18:00:31.408Z,10.90
2018-03-28T18:02:58.933Z,10.90
2018-03-28T18:05:27.247Z,10.90
2018-03-28T18:07:54.808Z,10.90
2018-03-28T18:10:22.394Z,10.80
2018-03-28T18:12:49.953Z,10.80
2018-03-28T18:15:17.452Z,10.80
2018-03-28T18:17:45.719Z,10.70
2018-03-28T18:20:14.134Z,10.70
2018-03-28T18:22:41.799Z,10.70
2018-03-28T18:25:09.327Z,10.70
2018-03-28T18:27:37.626Z,10.70
2018-03-28T18:30:05.149Z,10.70
2018-03-28T18:32:33.448Z,10.70
2018-03-28T18:35:00.977Z,10.70
2018-03-28T18:37:28.536Z,10.70
2018-03-28T18:39:56.058Z,10.70
2018-03-28T18:42:23.588Z,10.60
2018-03-28T18:44:51.103Z,10.60
2018-03-28T18:47:18.617Z,10.70
2018-03-28T18:49:46.114Z,10.70
2018-03-28T18:52:13.676Z,10.70
2018-03-28T18:54:41.214Z,10.80
2018-03-28T18:57:08.723Z,10.70
2018-03-28T18:59:37.032Z,10.70
2018-03-28T19:02:04.524Z,10.70
2018-03-28T19:04:32.060Z,10.70
2018-03-28T19:06:59.548Z,10.80
2018-03-28T19:09:27.075Z,10.80
2018-03-28T19:11:54.586Z,10.70
2018-03-28T19:14:22.918Z,10.80
2018-03-28T19:16:50.439Z,10.80
2018-03-28T19:19:17.972Z,10.70
2018-03-28T19:21:45.490Z,10.70
2018-03-28T19:24:13.054Z,10.70
2018-03-28T19:26:40.594Z,10.80
2018-03-28T19:29:08.111Z,10.70
2018-03-28T19:31:36.384Z,10.80
2018-03-28T19:34:04.722Z,10.70
2018-03-28T19:36:32.221Z,10.70
2018-03-28T19:38:59.769Z,10.70
2018-03-28T19:41:27.269Z,10.70
2018-03-28T19:43:55.579Z,10.60
2018-03-28T19:46:23.086Z,10.60
2018-03-28T19:48:51.396Z,10.60
2018-03-28T19:51:19.058Z,10.60
2018-03-28T19:53:46.567Z,10.60
2018-03-28T19:56:14.096Z,10.60
2018-03-28T19:58:41.617Z,10.60
2018-03-28T20:01:09.188Z,10.60
2018-03-28T20:03:36.709Z,10.60
2018-03-28T20:06:05.029Z,10.60
2018-03-28T20:08:32.567Z,10.60
2018-03-28T20:11:00.130Z,10.60
2018-03-28T20:13:27.659Z,10.70
2018-03-28T20:15:55.224Z,10.60
2018-03-28T20:18:23.528Z,10.50
2018-03-28T20:20:51.072Z,10.50
2018-03-28T20:23:19.370Z,10.50
2018-03-28T20:25:46.918Z,10.50
2018-03-28T20:28:14.485Z,10.50
2018-03-28T20:30:42.014Z,10.60
2018-03-28T20:33:10.343Z,10.50
2018-03-28T20:35:37.880Z,10.50
2018-03-28T20:38:05.441Z,10.50
2018-03-28T20:40:32.944Z,10.50
2018-03-28T20:43:00.487Z,10.40
2018-03-28T20:45:28.055Z,10.30
2018-03-28T20:47:55.574Z,10.40
2018-03-28T20:50:23.134Z,10.30
2018-03-28T20:52:50.666Z,10.30
2018-03-28T20:55:18.973Z,10.00
2018-03-28T20:57:48.262Z,9.90
2018-03-28T21:00:15.778Z,9.80
2018-03-28T21:02:43.301Z,9.70
2018-03-28T21:05:10.821Z,9.50
2018-03-28T21:07:39.133Z,9.20
2018-03-28T21:10:06.663Z,9.10
2018-03-28T21:12:34.932Z,9.00
2018-03-28T21:15:03.236Z,9.00
2018-03-28T21:17:30.782Z,9.00
2018-03-28T21:19:58.311Z,8.90
2018-03-28T21:22:25.835Z,8.90
2018-03-28T21:24:53.346Z,8.90
2018-03-28T21:27:20.893Z,9.00
2018-03-28T21:29:49.201Z,9.10
2018-03-28T21:32:16.694Z,9.00
2018-03-28T21:34:44.232Z,9.00
2018-03-28T21:37:11.755Z,9.00
2018-03-28T21:39:40.047Z,8.90
2018-03-28T21:42:07.567Z,8.80
2018-03-28T21:44:35.070Z,8.80
2018-03-28T21:47:02.588Z,8.70
2018-03-28T21:49:30.124Z,8.70
2018-03-28T21:51:57.637Z,8.80
2018-03-28T21:54:25.192Z,8.70
2018-03-28T21:56:53.457Z,8.70
2018-03-28T21:59:21.753Z,8.70
2018-03-28T22:01:49.312Z,8.60
2018-03-28T22:04:16.831Z,8.70
2018-03-28T22:06:44.366Z,8.70
2018-03-28T22:09:11.915Z,8.70
2018-03-28T22:11:39.424Z,8.70
2018-03-28T22:14:07.746Z,8.50
2018-03-28T22:16:35.253Z,8.50
2018-03-28T22:19:03.559Z,8.50
2018-03-28T22:21:31.079Z,8.50
2018-03-28T22:23:58.596Z,8.40
2018-03-28T22:26:26.148Z,8.40
2018-03-28T22:28:53.657Z,8.30
2018-03-28T22:31:21.158Z,8.30
2018-03-28T22:33:48.711Z,8.30
2018-03-28T22:36:16.234Z,8.30
2018-03-28T22:38:44.542Z,8.40
2018-03-28T22:41:12.061Z,8.30
2018-03-28T22:43:39.610Z,8.40
2018-03-28T22:46:07.105Z,8.30
2018-03-28T22:48:35.389Z,8.20
2018-03-28T22:51:03.702Z,8.20
2018-03-28T22:53:31.242Z,8.20
2018-03-28T22:55:58.738Z,8.30
2018-03-28T22:58:26.270Z,8.30
2018-03-28T23:00:53.792Z,8.30
2018-03-28T23:03:22.086Z,8.10
2018-03-28T23:05:49.616Z,8.10
2018-03-28T23:08:17.908Z,8.10
2018-03-28T23:10:46.197Z,8.10
2018-03-28T23:13:13.699Z,8.10
2018-03-28T23:15:41.209Z,8.10
2018-03-28T23:18:08.757Z,8.10
2018-03-28T23:20:37.053Z,8.10
2018-03-28T23:23:04.580Z,8.00
2018-03-28T23:25:32.887Z,7.90
2018-03-28T23:28:00.395Z,7.90
2018-03-28T23:30:27.908Z,8.00
2018-03-28T23:32:55.459Z,8.00
2018-03-28T23:35:22.979Z,7.90
2018-03-28T23:37:50.508Z,8.00
2018-03-28T23:40:18.042Z,7.90
2018-03-28T23:42:45.621Z,7.90
2018-03-28T23:45:13.885Z,8.00
2018-03-28T23:47:41.398Z,7.90
2018-03-28T23:50:08.938Z,7.90
2018-03-28T23:52:36.469Z,7.90
2018-03-28T23:55:03.997Z,7.90
2018-03-28T23:57:32.302Z,7.90
2018-03-28T23:59:59.829Z,7.90
